sensor_id;sensor_type;location;lat;lon;timestamp;pressure;altitude;pressure_sealevel;temperature;humidity
8253;BME280;61313;48.396;10.008;2023-03-21T00:00:26;96405.53;;;11.22;57.71
8253;BME280;61313;48.396;10.008;2023-03-21T00:02:52;96406.59;;;11.18;57.85
8253;BME280;61313;48.396;10.008;2023-03-21T00:05:17;96403.34;;;11.13;58.13
8253;BME280;61313;48.396;10.008;2023-03-21T00:07:45;96400.91;;;11.28;57.59
8253;BME280;61313;48.396;10.008;2023-03-21T00:10:11;96393.41;;;11.20;57.97
8253;BME280;61313;48.396;10.008;2023-03-21T00:12:36;96400.34;;;11.21;57.82
8253;BME280;61313;48.396;10.008;2023-03-21T00:15:10;96402.06;;;11.22;57.84
8253;BME280;61313;48.396;10.008;2023-03-21T00:17:37;96390.84;;;11.18;57.94
8253;BME280;61313;48.396;10.008;2023-03-21T00:20:05;96392.91;;;11.12;57.97
8253;BME280;61313;48.396;10.008;2023-03-21T00:22:35;96391.78;;;11.17;57.78
8253;BME280;61313;48.396;10.008;2023-03-21T00:25:01;96389.16;;;11.17;58.16
8253;BME280;61313;48.396;10.008;2023-03-21T00:27:26;96389.91;;;11.19;57.97
8253;BME280;61313;48.396;10.008;2023-03-21T00:29:52;96390.41;;;11.09;58.45
8253;BME280;61313;48.396;10.008;2023-03-21T00:32:18;96386.44;;;11.19;58.12
8253;BME280;61313;48.396;10.008;2023-03-21T00:34:45;96386.38;;;11.20;58.30
8253;BME280;61313;48.396;10.008;2023-03-21T00:37:10;96375.94;;;11.19;58.37
8253;BME280;61313;48.396;10.008;2023-03-21T00:39:38;96382.03;;;11.19;58.32
8253;BME280;61313;48.396;10.008;2023-03-21T00:42:04;96370.03;;;11.14;58.58
8253;BME280;61313;48.396;10.008;2023-03-21T00:44:29;96381.69;;;11.08;58.83
8253;BME280;61313;48.396;10.008;2023-03-21T00:47:02;96371.81;;;11.13;58.80
8253;BME280;61313;48.396;10.008;2023-03-21T00:49:28;96370.03;;;11.14;58.77
8253;BME280;61313;48.396;10.008;2023-03-21T00:51:58;96372.66;;;11.14;58.72
8253;BME280;61313;48.396;10.008;2023-03-21T00:54:24;96365.56;;;11.16;58.39
8253;BME280;61313;48.396;10.008;2023-03-21T00:56:50;96368.13;;;11.17;58.72
8253;BME280;61313;48.396;10.008;2023-03-21T00:59:15;96358.38;;;11.19;58.71
8253;BME280;61313;48.396;10.008;2023-03-21T01:01:41;96354.06;;;11.18;58.45
8253;BME280;61313;48.396;10.008;2023-03-21T01:04:07;96353.28;;;11.16;58.35
8253;BME280;61313;48.396;10.008;2023-03-21T01:06:38;96349.19;;;11.11;58.63
8253;BME280;61313;48.396;10.008;2023-03-21T01:09:05;96361.59;;;11.07;58.64
8253;BME280;61313;48.396;10.008;2023-03-21T01:11:30;96341.56;;;11.05;58.34
8253;BME280;61313;48.396;10.008;2023-03-21T01:13:57;96349.41;;;11.06;58.57
8253;BME280;61313;48.396;10.008;2023-03-21T01:16:23;96345.25;;;11.00;58.96
8253;BME280;61313;48.396;10.008;2023-03-21T01:18:49;96350.44;;;11.02;58.64
8253;BME280;61313;48.396;10.008;2023-03-21T01:21:15;96343.84;;;10.93;59.16
8253;BME280;61313;48.396;10.008;2023-03-21T01:23:42;96346.88;;;11.03;58.96
8253;BME280;61313;48.396;10.008;2023-03-21T01:26:09;96336.47;;;11.01;58.96
8253;BME280;61313;48.396;10.008;2023-03-21T01:28:36;96342.09;;;10.94;59.03
8253;BME280;61313;48.396;10.008;2023-03-21T01:31:03;96345.84;;;10.88;59.44
8253;BME280;61313;48.396;10.008;2023-03-21T01:33:30;96348.19;;;10.94;59.20
8253;BME280;61313;48.396;10.008;2023-03-21T01:35:56;96343.94;;;10.92;59.26
8253;BME280;61313;48.396;10.008;2023-03-21T01:38:21;96345.34;;;10.99;59.23
8253;BME280;61313;48.396;10.008;2023-03-21T01:40:48;96346.13;;;11.01;58.90
8253;BME280;61313;48.396;10.008;2023-03-21T01:48:32;96343.50;;;11.01;58.86
8253;BME280;61313;48.396;10.008;2023-03-21T01:51:01;96340.31;;;10.75;59.80
8253;BME280;61313;48.396;10.008;2023-03-21T01:53:29;96343.28;;;10.68;60.39
8253;BME280;61313;48.396;10.008;2023-03-21T01:56:02;96333.13;;;10.60;60.31
8253;BME280;61313;48.396;10.008;2023-03-21T01:58:31;96339.53;;;10.73;60.21
8253;BME280;61313;48.396;10.008;2023-03-21T02:00:57;96337.78;;;10.72;60.64
8253;BME280;61313;48.396;10.008;2023-03-21T02:03:24;96334.22;;;10.75;60.19
8253;BME280;61313;48.396;10.008;2023-03-21T02:06:12;96336.91;;;10.73;59.88
8253;BME280;61313;48.396;10.008;2023-03-21T02:08:39;96332.50;;;10.74;60.15
8253;BME280;61313;48.396;10.008;2023-03-21T02:11:06;96333.06;;;10.80;59.28
8253;BME280;61313;48.396;10.008;2023-03-21T02:13:31;96327.97;;;10.77;59.76
8253;BME280;61313;48.396;10.008;2023-03-21T02:27:09;96316.38;;;10.81;59.47
8253;BME280;61313;48.396;10.008;2023-03-21T02:30:00;96310.22;;;10.83;59.35
8253;BME280;61313;48.396;10.008;2023-03-21T02:37:58;96303.53;;;10.37;61.37
8253;BME280;61313;48.396;10.008;2023-03-21T02:40:28;96308.75;;;10.17;62.20
8253;BME280;61313;48.396;10.008;2023-03-21T02:43:23;96311.53;;;10.14;62.28
8253;BME280;61313;48.396;10.008;2023-03-21T02:45:55;96309.69;;;10.16;62.57
8253;BME280;61313;48.396;10.008;2023-03-21T02:48:28;96309.53;;;10.19;61.84
8253;BME280;61313;48.396;10.008;2023-03-21T02:50:59;96308.88;;;10.34;61.77
8253;BME280;61313;48.396;10.008;2023-03-21T02:53:30;96299.56;;;10.27;62.48
8253;BME280;61313;48.396;10.008;2023-03-21T02:55:59;96308.97;;;10.33;62.45
8253;BME280;61313;48.396;10.008;2023-03-21T02:58:27;96309.28;;;10.25;62.56
8253;BME280;61313;48.396;10.008;2023-03-21T03:00:54;96300.13;;;10.35;62.50
8253;BME280;61313;48.396;10.008;2023-03-21T03:03:21;96303.78;;;10.31;62.94
8253;BME280;61313;48.396;10.008;2023-03-21T03:05:53;96292.88;;;10.41;61.92
8253;BME280;61313;48.396;10.008;2023-03-21T03:19:15;96303.75;;;10.52;61.87
8253;BME280;61313;48.396;10.008;2023-03-21T03:21:53;96306.22;;;10.55;62.18
8253;BME280;61313;48.396;10.008;2023-03-21T03:24:25;96308.41;;;10.45;62.14
8253;BME280;61313;48.396;10.008;2023-03-21T03:29:22;96293.63;;;10.44;62.49
8253;BME280;61313;48.396;10.008;2023-03-21T03:32:33;96295.75;;;10.55;61.86
8253;BME280;61313;48.396;10.008;2023-03-21T03:34:56;96296.84;;;10.30;62.93
8253;BME280;61313;48.396;10.008;2023-03-21T03:37:26;96297.19;;;10.42;62.26
8253;BME280;61313;48.396;10.008;2023-03-21T03:39:58;96291.31;;;10.36;62.46
8253;BME280;61313;48.396;10.008;2023-03-21T03:42:51;96289.47;;;10.38;62.97
8253;BME280;61313;48.396;10.008;2023-03-21T03:45:17;96288.78;;;10.35;62.81
8253;BME280;61313;48.396;10.008;2023-03-21T03:47:55;96290.47;;;10.36;62.39
8253;BME280;61313;48.396;10.008;2023-03-21T03:50:29;96289.78;;;10.32;62.41
8253;BME280;61313;48.396;10.008;2023-03-21T03:53:02;96297.03;;;10.26;62.58
8253;BME280;61313;48.396;10.008;2023-03-21T03:55:30;96290.69;;;10.31;63.12
8253;BME280;61313;48.396;10.008;2023-03-21T03:57:59;96288.97;;;10.30;62.54
8253;BME280;61313;48.396;10.008;2023-03-21T04:00:26;96292.50;;;10.29;62.33
8253;BME280;61313;48.396;10.008;2023-03-21T04:02:52;96287.78;;;10.37;61.75
8253;BME280;61313;48.396;10.008;2023-03-21T04:05:18;96292.94;;;10.39;61.66
8253;BME280;61313;48.396;10.008;2023-03-21T04:07:46;96295.44;;;10.42;61.92
8253;BME280;61313;48.396;10.008;2023-03-21T04:10:16;96289.22;;;10.45;62.00
8253;BME280;61313;48.396;10.008;2023-03-21T04:12:41;96289.56;;;10.37;61.77
8253;BME280;61313;48.396;10.008;2023-03-21T04:15:07;96285.47;;;10.30;62.06
8253;BME280;61313;48.396;10.008;2023-03-21T04:17:33;96291.47;;;10.33;61.73
8253;BME280;61313;48.396;10.008;2023-03-21T04:19:58;96293.09;;;10.36;61.94
8253;BME280;61313;48.396;10.008;2023-03-21T04:22:24;96284.91;;;10.23;62.16
8253;BME280;61313;48.396;10.008;2023-03-21T04:24:51;96289.06;;;10.27;62.12
8253;BME280;61313;48.396;10.008;2023-03-21T04:27:17;96295.13;;;10.29;62.43
8253;BME280;61313;48.396;10.008;2023-03-21T04:29:42;96288.44;;;10.22;62.25
8253;BME280;61313;48.396;10.008;2023-03-21T04:32:08;96288.72;;;10.16;62.66
8253;BME280;61313;48.396;10.008;2023-03-21T04:34:42;96279.53;;;10.06;62.70
8253;BME280;61313;48.396;10.008;2023-03-21T04:37:09;96288.97;;;10.10;62.69
8253;BME280;61313;48.396;10.008;2023-03-21T04:39:36;96293.56;;;10.05;63.42
8253;BME280;61313;48.396;10.008;2023-03-21T04:42:03;96285.22;;;10.15;62.99
8253;BME280;61313;48.396;10.008;2023-03-21T04:44:28;96288.78;;;9.94;63.20
8253;BME280;61313;48.396;10.008;2023-03-21T04:46:54;96276.47;;;9.96;63.89
8253;BME280;61313;48.396;10.008;2023-03-21T04:49:20;96283.47;;;9.95;63.53
8253;BME280;61313;48.396;10.008;2023-03-21T04:51:45;96288.78;;;9.94;64.64
8253;BME280;61313;48.396;10.008;2023-03-21T04:54:11;96284.28;;;9.98;64.24
8253;BME280;61313;48.396;10.008;2023-03-21T04:56:38;96280.50;;;10.03;64.05
8253;BME280;61313;48.396;10.008;2023-03-21T04:59:09;96283.72;;;10.10;63.85
8253;BME280;61313;48.396;10.008;2023-03-21T05:01:35;96277.34;;;10.15;63.86
8253;BME280;61313;48.396;10.008;2023-03-21T05:04:01;96280.16;;;10.11;64.27
8253;BME280;61313;48.396;10.008;2023-03-21T05:06:27;96281.16;;;10.08;64.09
8253;BME280;61313;48.396;10.008;2023-03-21T05:08:54;96283.59;;;10.13;64.53
8253;BME280;61313;48.396;10.008;2023-03-21T05:11:30;96281.59;;;10.18;64.24
8253;BME280;61313;48.396;10.008;2023-03-21T05:13:57;96277.94;;;10.22;63.62
8253;BME280;61313;48.396;10.008;2023-03-21T05:16:23;96286.50;;;10.07;63.98
8253;BME280;61313;48.396;10.008;2023-03-21T05:18:52;96274.38;;;10.04;64.31
8253;BME280;61313;48.396;10.008;2023-03-21T05:21:19;96277.00;;;10.04;64.71
8253;BME280;61313;48.396;10.008;2023-03-21T05:23:45;96280.31;;;10.08;64.34
8253;BME280;61313;48.396;10.008;2023-03-21T05:26:18;96280.66;;;10.00;63.77
8253;BME280;61313;48.396;10.008;2023-03-21T05:28:44;96287.78;;;9.96;63.99
8253;BME280;61313;48.396;10.008;2023-03-21T05:31:09;96284.19;;;9.99;64.11
8253;BME280;61313;48.396;10.008;2023-03-21T05:33:39;96284.06;;;10.02;63.51
8253;BME280;61313;48.396;10.008;2023-03-21T05:36:05;96277.97;;;10.02;64.16
8253;BME280;61313;48.396;10.008;2023-03-21T05:38:30;96285.06;;;10.00;64.33
8253;BME280;61313;48.396;10.008;2023-03-21T05:40:56;96281.16;;;10.08;63.72
8253;BME280;61313;48.396;10.008;2023-03-21T05:43:21;96287.38;;;10.06;64.27
8253;BME280;61313;48.396;10.008;2023-03-21T05:45:47;96293.84;;;9.78;65.22
8253;BME280;61313;48.396;10.008;2023-03-21T05:48:12;96289.72;;;9.93;64.42
8253;BME280;61313;48.396;10.008;2023-03-21T05:50:38;96291.94;;;10.02;64.60
8253;BME280;61313;48.396;10.008;2023-03-21T05:53:03;96292.38;;;10.12;63.82
8253;BME280;61313;48.396;10.008;2023-03-21T05:55:28;96295.25;;;10.06;63.89
8253;BME280;61313;48.396;10.008;2023-03-21T05:57:54;96296.25;;;10.03;64.01
8253;BME280;61313;48.396;10.008;2023-03-21T06:00:19;96298.47;;;10.12;63.61
8253;BME280;61313;48.396;10.008;2023-03-21T06:02:46;96293.81;;;10.19;63.58
8253;BME280;61313;48.396;10.008;2023-03-21T06:05:11;96295.69;;;10.15;63.50
8253;BME280;61313;48.396;10.008;2023-03-21T06:07:37;96286.53;;;10.26;63.15
8253;BME280;61313;48.396;10.008;2023-03-21T06:10:03;96290.53;;;10.34;63.32
8253;BME280;61313;48.396;10.008;2023-03-21T06:12:29;96289.78;;;10.32;62.58
8253;BME280;61313;48.396;10.008;2023-03-21T06:14:55;96288.06;;;10.31;63.13
8253;BME280;61313;48.396;10.008;2023-03-21T06:17:20;96285.38;;;10.33;62.82
8253;BME280;61313;48.396;10.008;2023-03-21T06:19:46;96288.00;;;10.33;62.92
8253;BME280;61313;48.396;10.008;2023-03-21T06:22:11;96287.91;;;10.34;62.47
8253;BME280;61313;48.396;10.008;2023-03-21T06:24:37;96286.28;;;10.32;62.83
8253;BME280;61313;48.396;10.008;2023-03-21T06:27:02;96296.28;;;10.43;62.42
8253;BME280;61313;48.396;10.008;2023-03-21T06:29:28;96297.94;;;10.45;62.26
8253;BME280;61313;48.396;10.008;2023-03-21T06:31:53;96294.16;;;10.51;62.17
8253;BME280;61313;48.396;10.008;2023-03-21T06:34:18;96292.88;;;10.41;62.64
8253;BME280;61313;48.396;10.008;2023-03-21T06:36:44;96294.88;;;10.54;61.62
8253;BME280;61313;48.396;10.008;2023-03-21T06:39:11;96298.31;;;10.56;61.82
8253;BME280;61313;48.396;10.008;2023-03-21T06:41:36;96293.16;;;10.53;62.18
8253;BME280;61313;48.396;10.008;2023-03-21T06:44:02;96303.97;;;10.27;63.47
8253;BME280;61313;48.396;10.008;2023-03-21T06:46:28;96297.47;;;10.15;63.60
8253;BME280;61313;48.396;10.008;2023-03-21T06:48:53;96299.47;;;10.30;63.79
8253;BME280;61313;48.396;10.008;2023-03-21T06:51:19;96297.00;;;10.46;63.03
8253;BME280;61313;48.396;10.008;2023-03-21T06:53:44;96299.41;;;10.51;62.92
8253;BME280;61313;48.396;10.008;2023-03-21T06:56:11;96302.34;;;10.45;63.07
8253;BME280;61313;48.396;10.008;2023-03-21T06:58:37;96292.31;;;10.53;62.68
8253;BME280;61313;48.396;10.008;2023-03-21T07:01:03;96298.72;;;10.66;62.52
8253;BME280;61313;48.396;10.008;2023-03-21T07:03:29;96294.84;;;10.75;62.20
8253;BME280;61313;48.396;10.008;2023-03-21T07:05:56;96299.63;;;10.84;61.43
8253;BME280;61313;48.396;10.008;2023-03-21T07:08:22;96290.06;;;10.83;61.33
8253;BME280;61313;48.396;10.008;2023-03-21T07:10:48;96294.97;;;10.91;61.15
8253;BME280;61313;48.396;10.008;2023-03-21T07:13:14;96293.25;;;10.90;61.29
8253;BME280;61313;48.396;10.008;2023-03-21T07:15:40;96298.56;;;10.88;61.19
8253;BME280;61313;48.396;10.008;2023-03-21T07:18:07;96289.66;;;10.92;61.23
8253;BME280;61313;48.396;10.008;2023-03-21T07:20:33;96300.56;;;11.02;61.10
8253;BME280;61313;48.396;10.008;2023-03-21T07:23:00;96295.16;;;10.86;61.80
8253;BME280;61313;48.396;10.008;2023-03-21T07:25:26;96293.75;;;10.98;61.23
8253;BME280;61313;48.396;10.008;2023-03-21T07:27:52;96296.59;;;10.93;61.56
8253;BME280;61313;48.396;10.008;2023-03-21T07:30:18;96298.88;;;11.01;61.26
8253;BME280;61313;48.396;10.008;2023-03-21T07:32:43;96293.63;;;11.01;60.66
8253;BME280;61313;48.396;10.008;2023-03-21T07:35:11;96286.94;;;11.13;60.49
8253;BME280;61313;48.396;10.008;2023-03-21T07:37:38;96287.03;;;11.29;60.19
8253;BME280;61313;48.396;10.008;2023-03-21T07:40:04;96294.31;;;11.05;60.83
8253;BME280;61313;48.396;10.008;2023-03-21T07:42:38;96290.25;;;11.16;60.85
8253;BME280;61313;48.396;10.008;2023-03-21T07:45:04;96294.00;;;11.30;59.74
8253;BME280;61313;48.396;10.008;2023-03-21T07:47:32;96289.47;;;11.14;61.00
8253;BME280;61313;48.396;10.008;2023-03-21T07:49:57;96294.81;;;11.13;60.61
8253;BME280;61313;48.396;10.008;2023-03-21T07:52:23;96293.22;;;11.28;60.31
8253;BME280;61313;48.396;10.008;2023-03-21T07:54:48;96290.84;;;11.40;60.04
8253;BME280;61313;48.396;10.008;2023-03-21T07:57:14;96294.19;;;11.61;59.32
8253;BME280;61313;48.396;10.008;2023-03-21T07:59:39;96288.63;;;11.85;58.92
8253;BME280;61313;48.396;10.008;2023-03-21T08:02:05;96291.44;;;11.99;58.25
8253;BME280;61313;48.396;10.008;2023-03-21T08:04:31;96287.06;;;12.33;57.38
8253;BME280;61313;48.396;10.008;2023-03-21T08:06:56;96287.06;;;12.33;56.26
8253;BME280;61313;48.396;10.008;2023-03-21T08:09:22;96288.72;;;12.67;56.16
8253;BME280;61313;48.396;10.008;2023-03-21T08:11:47;96284.94;;;12.89;54.83
8253;BME280;61313;48.396;10.008;2023-03-21T08:14:13;96279.84;;;13.02;54.80
8253;BME280;61313;48.396;10.008;2023-03-21T08:16:38;96277.63;;;12.94;54.64
8253;BME280;61313;48.396;10.008;2023-03-21T08:19:04;96272.38;;;12.29;56.47
8253;BME280;61313;48.396;10.008;2023-03-21T08:21:30;96276.03;;;12.42;55.61
8253;BME280;61313;48.396;10.008;2023-03-21T08:23:55;96279.28;;;12.14;56.92
8253;BME280;61313;48.396;10.008;2023-03-21T08:26:20;96276.28;;;12.71;55.14
8253;BME280;61313;48.396;10.008;2023-03-21T08:28:50;96276.28;;;12.71;54.73
8253;BME280;61313;48.396;10.008;2023-03-21T08:31:16;96269.38;;;12.35;56.41
8253;BME280;61313;48.396;10.008;2023-03-21T08:33:42;96268.78;;;12.79;55.04
8253;BME280;61313;48.396;10.008;2023-03-21T08:36:08;96272.53;;;12.91;53.75
8253;BME280;61313;48.396;10.008;2023-03-21T08:38:34;96271.75;;;12.73;53.73
8253;BME280;61313;48.396;10.008;2023-03-21T08:41:00;96270.31;;;12.67;53.76
8253;BME280;61313;48.396;10.008;2023-03-21T08:43:26;96275.50;;;12.85;53.55
8253;BME280;61313;48.396;10.008;2023-03-21T08:45:52;96261.34;;;12.87;53.01
8253;BME280;61313;48.396;10.008;2023-03-21T08:48:18;96269.72;;;13.10;52.71
8253;BME280;61313;48.396;10.008;2023-03-21T08:53:09;96276.91;;;12.59;54.22
8253;BME280;61313;48.396;10.008;2023-03-21T08:55:35;96273.38;;;12.76;53.78
8253;BME280;61313;48.396;10.008;2023-03-21T08:58:00;96276.53;;;13.14;52.27
8253;BME280;61313;48.396;10.008;2023-03-21T09:00:26;96268.28;;;12.88;52.64
8253;BME280;61313;48.396;10.008;2023-03-21T09:02:52;96265.47;;;12.91;53.24
8253;BME280;61313;48.396;10.008;2023-03-21T09:05:19;96271.31;;;12.97;52.47
8253;BME280;61313;48.396;10.008;2023-03-21T09:10:30;96260.84;;;13.59;51.59
8253;BME280;61313;48.396;10.008;2023-03-21T09:12:56;96262.06;;;13.21;52.61
8253;BME280;61313;48.396;10.008;2023-03-21T09:15:24;96266.41;;;12.90;53.92
8253;BME280;61313;48.396;10.008;2023-03-21T09:17:53;96262.31;;;13.01;52.84
8253;BME280;61313;48.396;10.008;2023-03-21T09:20:22;96254.16;;;13.21;53.18
8253;BME280;61313;48.396;10.008;2023-03-21T09:22:54;96255.66;;;13.57;51.91
8253;BME280;61313;48.396;10.008;2023-03-21T09:25:21;96257.06;;;13.32;52.52
8253;BME280;61313;48.396;10.008;2023-03-21T09:27:48;96246.84;;;13.42;51.89
8253;BME280;61313;48.396;10.008;2023-03-21T09:30:16;96252.94;;;13.59;51.26
8253;BME280;61313;48.396;10.008;2023-03-21T09:32:43;96253.50;;;13.64;51.02
8253;BME280;61313;48.396;10.008;2023-03-21T09:35:16;96255.25;;;13.93;49.63
8253;BME280;61313;48.396;10.008;2023-03-21T09:37:44;96251.19;;;13.73;49.69
8253;BME280;61313;48.396;10.008;2023-03-21T09:40:17;96243.56;;;13.83;48.76
8253;BME280;61313;48.396;10.008;2023-03-21T09:45:18;96244.94;;;14.19;47.60
8253;BME280;61313;48.396;10.008;2023-03-21T09:47:49;96247.25;;;14.54;47.13
8253;BME280;61313;48.396;10.008;2023-03-21T09:50:27;96245.91;;;14.75;46.68
8253;BME280;61313;48.396;10.008;2023-03-21T09:53:09;96240.81;;;14.72;46.91
8253;BME280;61313;48.396;10.008;2023-03-21T09:55:39;96241.09;;;14.39;47.77
8253;BME280;61313;48.396;10.008;2023-03-21T09:58:10;96237.69;;;14.23;48.36
8253;BME280;61313;48.396;10.008;2023-03-21T10:00:39;96240.72;;;14.59;47.38
8253;BME280;61313;48.396;10.008;2023-03-21T10:03:30;96234.50;;;14.17;47.86
8253;BME280;61313;48.396;10.008;2023-03-21T10:06:00;96237.75;;;14.78;46.95
8253;BME280;61313;48.396;10.008;2023-03-21T10:08:34;96235.91;;;14.66;46.46
8253;BME280;61313;48.396;10.008;2023-03-21T10:11:09;96237.16;;;15.02;45.25
8253;BME280;61313;48.396;10.008;2023-03-21T10:13:49;96231.44;;;15.50;43.98
8253;BME280;61313;48.396;10.008;2023-03-21T10:16:28;96220.06;;;15.75;43.41
8253;BME280;61313;48.396;10.008;2023-03-21T10:18:56;96213.75;;;16.03;42.58
8253;BME280;61313;48.396;10.008;2023-03-21T10:21:26;96219.47;;;16.35;44.45
8253;BME280;61313;48.396;10.008;2023-03-21T10:23:54;96208.69;;;16.88;47.11
8253;BME280;61313;48.396;10.008;2023-03-21T10:26:24;96205.53;;;17.20;43.75
8253;BME280;61313;48.396;10.008;2023-03-21T10:28:53;96203.56;;;16.98;41.85
8253;BME280;61313;48.396;10.008;2023-03-21T10:31:25;96195.91;;;17.30;40.50
8253;BME280;61313;48.396;10.008;2023-03-21T10:33:55;96196.47;;;17.46;40.05
8253;BME280;61313;48.396;10.008;2023-03-21T10:36:25;96206.47;;;16.95;40.74
8253;BME280;61313;48.396;10.008;2023-03-21T10:39:04;96195.09;;;16.43;41.65
8253;BME280;61313;48.396;10.008;2023-03-21T10:41:31;96205.91;;;16.27;42.56
8253;BME280;61313;48.396;10.008;2023-03-21T10:44:09;96200.91;;;16.61;41.64
8253;BME280;61313;48.396;10.008;2023-03-21T10:46:36;96198.84;;;16.77;41.52
8253;BME280;61313;48.396;10.008;2023-03-21T10:49:02;96198.72;;;16.91;40.83
8253;BME280;61313;48.396;10.008;2023-03-21T10:51:31;96198.94;;;16.76;41.72
8253;BME280;61313;48.396;10.008;2023-03-21T10:54:00;96192.25;;;17.20;40.41
8253;BME280;61313;48.396;10.008;2023-03-21T10:56:29;96198.06;;;17.49;39.22
8253;BME280;61313;48.396;10.008;2023-03-21T10:58:57;96184.25;;;17.68;38.56
8253;BME280;61313;48.396;10.008;2023-03-21T11:01:35;96193.31;;;17.41;37.89
8253;BME280;61313;48.396;10.008;2023-03-21T11:04:23;96190.63;;;17.65;38.37
8253;BME280;61313;48.396;10.008;2023-03-21T11:06:53;96188.72;;;17.67;38.22
8253;BME280;61313;48.396;10.008;2023-03-21T11:09:21;96190.13;;;17.36;38.39
8253;BME280;61313;48.396;10.008;2023-03-21T11:12:15;96186.03;;;17.32;38.60
8253;BME280;61313;48.396;10.008;2023-03-21T11:19:56;96184.78;;;17.49;39.00
8253;BME280;61313;48.396;10.008;2023-03-21T11:22:25;96181.34;;;17.35;39.29
8253;BME280;61313;48.396;10.008;2023-03-21T11:24:55;96175.84;;;17.50;39.28
8253;BME280;61313;48.396;10.008;2023-03-21T11:27:22;96179.00;;;17.20;39.74
8253;BME280;61313;48.396;10.008;2023-03-21T11:29:49;96177.56;;;16.79;40.31
8253;BME280;61313;48.396;10.008;2023-03-21T11:34:49;96182.53;;;16.83;41.04
8253;BME280;61313;48.396;10.008;2023-03-21T11:37:32;96168.44;;;17.07;40.01
8253;BME280;61313;48.396;10.008;2023-03-21T11:40:28;96166.69;;;17.19;39.60
8253;BME280;61313;48.396;10.008;2023-03-21T11:45:27;96157.53;;;17.47;38.97
8253;BME280;61313;48.396;10.008;2023-03-21T11:47:55;96146.47;;;17.64;38.44
8253;BME280;61313;48.396;10.008;2023-03-21T11:50:25;96144.09;;;17.72;38.66
8253;BME280;61313;48.396;10.008;2023-03-21T11:55:46;96138.16;;;17.33;38.63
8253;BME280;61313;48.396;10.008;2023-03-21T12:06:35;96122.72;;;17.74;37.02
8253;BME280;61313;48.396;10.008;2023-03-21T12:14:43;96114.69;;;17.40;37.49
8253;BME280;61313;48.396;10.008;2023-03-21T12:19:48;96113.75;;;17.41;37.65
8253;BME280;61313;48.396;10.008;2023-03-21T12:22:20;96107.56;;;17.41;37.60
8253;BME280;61313;48.396;10.008;2023-03-21T12:24:54;96090.13;;;17.49;37.96
8253;BME280;61313;48.396;10.008;2023-03-21T12:30:13;96095.63;;;17.35;37.28
8253;BME280;61313;48.396;10.008;2023-03-21T12:44:38;96084.16;;;17.23;38.70
8253;BME280;61313;48.396;10.008;2023-03-21T12:47:00;96085.31;;;17.08;39.36
8253;BME280;61313;48.396;10.008;2023-03-21T12:49:31;96076.19;;;17.23;39.11
8253;BME280;61313;48.396;10.008;2023-03-21T12:52:05;96076.28;;;17.22;39.29
8253;BME280;61313;48.396;10.008;2023-03-21T12:55:00;96067.25;;;17.13;39.79
8253;BME280;61313;48.396;10.008;2023-03-21T12:57:34;96063.81;;;16.76;40.33
8253;BME280;61313;48.396;10.008;2023-03-21T13:00:20;96056.25;;;17.06;39.71
8253;BME280;61313;48.396;10.008;2023-03-21T13:02:57;96060.38;;;17.10;38.80
8253;BME280;61313;48.396;10.008;2023-03-21T13:05:28;96053.28;;;17.22;39.36
8253;BME280;61313;48.396;10.008;2023-03-21T13:08:02;96044.47;;;17.22;39.11
8253;BME280;61313;48.396;10.008;2023-03-21T13:10:30;96043.56;;;17.34;38.82
8253;BME280;61313;48.396;10.008;2023-03-21T13:13:05;96042.94;;;17.30;38.83
8253;BME280;61313;48.396;10.008;2023-03-21T13:24:16;96039.03;;;17.12;39.32
8253;BME280;61313;48.396;10.008;2023-03-21T13:26:46;96035.19;;;17.16;40.27
8253;BME280;61313;48.396;10.008;2023-03-21T13:29:27;96035.53;;;17.11;39.23
8253;BME280;61313;48.396;10.008;2023-03-21T13:32:07;96026.28;;;16.82;39.55
8253;BME280;61313;48.396;10.008;2023-03-21T13:34:34;96030.19;;;17.00;39.62
8253;BME280;61313;48.396;10.008;2023-03-21T13:37:02;96028.41;;;17.12;40.03
8253;BME280;61313;48.396;10.008;2023-03-21T13:39:28;96028.56;;;17.10;39.11
8253;BME280;61313;48.396;10.008;2023-03-21T13:41:54;96025.41;;;17.17;38.93
8253;BME280;61313;48.396;10.008;2023-03-21T13:44:48;96034.22;;;17.06;39.18
8253;BME280;61313;48.396;10.008;2023-03-21T13:47:50;96023.06;;;16.89;39.03
8253;BME280;61313;48.396;10.008;2023-03-21T13:55:44;96012.69;;;16.86;38.60
8253;BME280;61313;48.396;10.008;2023-03-21T13:58:38;96012.47;;;16.89;38.62
8253;BME280;61313;48.396;10.008;2023-03-21T14:04:03;96010.75;;;16.88;38.25
8253;BME280;61313;48.396;10.008;2023-03-21T14:06:37;96005.31;;;16.79;38.71
8253;BME280;61313;48.396;10.008;2023-03-21T14:09:05;96011.34;;;16.81;39.27
8253;BME280;61313;48.396;10.008;2023-03-21T14:11:32;96002.56;;;16.80;38.78
8253;BME280;61313;48.396;10.008;2023-03-21T14:13:59;96005.94;;;16.93;37.92
8253;BME280;61313;48.396;10.008;2023-03-21T14:16:26;96004.63;;;16.88;38.25
8253;BME280;61313;48.396;10.008;2023-03-21T14:19:02;96005.25;;;16.91;38.40
8253;BME280;61313;48.396;10.008;2023-03-21T14:21:33;95997.00;;;16.83;38.82
8253;BME280;61313;48.396;10.008;2023-03-21T14:24:19;95995.69;;;16.89;38.48
8253;BME280;61313;48.396;10.008;2023-03-21T14:26:50;95992.44;;;16.85;38.10
8253;BME280;61313;48.396;10.008;2023-03-21T14:29:24;95983.69;;;16.72;37.50
8253;BME280;61313;48.396;10.008;2023-03-21T14:31:49;95990.06;;;16.69;37.84
8253;BME280;61313;48.396;10.008;2023-03-21T14:34:16;95985.75;;;16.68;37.71
8253;BME280;61313;48.396;10.008;2023-03-21T14:36:42;95988.63;;;16.65;38.02
8253;BME280;61313;48.396;10.008;2023-03-21T14:39:19;95981.47;;;16.55;38.32
8253;BME280;61313;48.396;10.008;2023-03-21T14:41:52;95978.91;;;16.53;38.49
8253;BME280;61313;48.396;10.008;2023-03-21T14:44:25;95978.16;;;16.40;38.41
8253;BME280;61313;48.396;10.008;2023-03-21T14:47:15;95974.09;;;16.47;38.43
8253;BME280;61313;48.396;10.008;2023-03-21T14:49:41;95969.53;;;16.49;38.31
8253;BME280;61313;48.396;10.008;2023-03-21T14:52:11;95970.72;;;16.45;38.61
8253;BME280;61313;48.396;10.008;2023-03-21T14:54:40;95961.69;;;16.47;37.95